Time;durP1;ratioP1;P1;durP2;ratioP2;P2;SDS_P1;SDS_P2;PMS_P1;PMS_P2;Temp;Humidity;BMP_temperature;BMP_pressure;BME280_temperature;BME280_humidity;BME280_pressure;Samples;Min_cycle;Max_cycle;Signal;HPM_P1;HPM_P2
2022/12/22 03:25:54;;;;;;;3.50;1.33;;;;;;;-1.03;52.01;102245.38;5027803;28;20082;-80
2022/12/22 03:28:24;;;;;;;1.70;0.77;;;;;;;-1.07;50.74;102239.06;5027334;28;20049;-77
2022/12/22 03:30:58;;;;;;;6.18;1.00;;;;;;;-1.10;50.88;102238.78;5022704;28;20486;-79
2022/12/22 03:33:36;;;;;;;2.78;0.93;;;;;;;-1.15;51.03;102239.03;5023088;28;20957;-75
2022/12/22 03:36:05;;;;;;;0.63;0.50;;;;;;;-1.18;51.15;102244.72;5024820;28;20045;-77
2022/12/22 03:38:34;;;;;;;3.00;0.90;;;;;;;-1.21;51.50;102253.66;5022504;28;20141;-77
2022/12/22 03:41:03;;;;;;;1.50;0.77;;;;;;;-1.23;50.38;102257.72;5023198;28;20053;-80
2022/12/22 03:46:31;;;;;;;6.22;1.00;;;;;;;-1.32;49.36;102267.84;5022047;28;20741;-78
2022/12/22 03:49:11;;;;;;;4.82;1.40;;;;;;;-1.36;50.25;102278.41;5023894;28;20169;-76
2022/12/22 03:51:42;;;;;;;1.55;1.13;;;;;;;-1.41;49.07;102275.41;5022341;28;20049;-79
2022/12/22 03:54:11;;;;;;;2.17;1.25;;;;;;;-1.40;49.55;102286.47;5026241;28;20522;-77
2022/12/22 03:56:40;;;;;;;3.17;1.10;;;;;;;-1.40;50.42;102282.28;5020953;28;20049;-77
2022/12/22 03:59:09;;;;;;;4.45;1.08;;;;;;;-1.40;50.94;102289.00;5024622;28;20061;-79
2022/12/22 04:01:40;;;;;;;1.40;1.02;;;;;;;-1.43;50.03;102283.63;5024869;28;20053;-81
2022/12/22 04:04:11;;;;;;;2.40;0.90;;;;;;;-1.45;49.95;102280.91;5026457;28;20559;-84
2022/12/22 04:06:40;;;;;;;1.60;0.70;;;;;;;-1.47;50.04;102274.78;5022172;28;20081;-78
2022/12/22 04:09:08;;;;;;;5.80;1.00;;;;;;;-1.52;49.49;102271.75;5020767;28;20042;-81
2022/12/22 04:14:19;;;;;;;1.45;0.70;;;;;;;-1.56;49.94;102274.75;5002488;28;20755;-79
2022/12/22 04:16:48;;;;;;;2.40;1.05;;;;;;;-1.57;50.57;102275.47;5027199;28;20648;-81
2022/12/22 04:19:18;;;;;;;1.15;0.63;;;;;;;-1.57;48.48;102275.47;5029882;28;20256;-77
2022/12/22 04:21:47;;;;;;;1.15;0.98;;;;;;;-1.60;49.43;102272.66;5021523;28;20045;-80
2022/12/22 04:24:16;;;;;;;12.15;1.05;;;;;;;-1.65;49.48;102263.63;5026979;28;20049;-84
2022/12/22 04:26:45;;;;;;;1.98;0.82;;;;;;;-1.64;48.71;102270.53;5030155;28;20620;-80
2022/12/22 04:29:14;;;;;;;1.42;0.85;;;;;;;-1.64;49.47;102273.06;5031332;28;20053;-78
2022/12/22 04:31:43;;;;;;;1.50;1.00;;;;;;;-1.66;49.41;102277.09;5027708;28;20049;-80
2022/12/22 04:34:11;;;;;;;3.42;0.68;;;;;;;-1.69;48.94;102267.53;5027796;28;20056;-82
2022/12/22 04:36:42;;;;;;;1.42;1.10;;;;;;;-1.71;49.34;102273.19;5029539;28;20100;-81
2022/12/22 04:39:11;;;;;;;1.92;1.13;;;;;;;-1.78;47.79;102265.69;5027521;28;20046;-78
2022/12/22 04:41:40;;;;;;;2.80;1.08;;;;;;;-1.82;47.83;102259.38;5025478;28;20041;-77
2022/12/22 04:44:08;;;;;;;1.67;0.77;;;;;;;-1.83;48.07;102254.13;5028033;28;20053;-77
2022/12/22 04:46:37;;;;;;;2.40;0.82;;;;;;;-1.85;48.14;102261.63;5027296;28;20049;-80
2022/12/22 04:49:06;;;;;;;0.95;0.55;;;;;;;-1.89;47.74;102256.97;5030675;28;20124;-82
2022/12/22 04:51:34;;;;;;;1.23;0.82;;;;;;;-1.94;47.20;102264.09;5029386;28;20041;-76
2022/12/22 04:54:05;;;;;;;2.30;0.60;;;;;;;-2.01;47.66;102248.97;5028916;28;20052;-76
2022/12/22 04:56:33;;;;;;;0.70;0.43;;;;;;;-1.96;48.11;102262.13;5027803;28;20053;-81
2022/12/22 04:59:02;;;;;;;1.98;1.13;;;;;;;-1.97;47.60;102256.16;5024617;28;20092;-80
2022/12/22 05:01:31;;;;;;;6.60;0.70;;;;;;;-2.04;47.60;102251.19;5004059;28;20053;-78
2022/12/22 05:03:59;;;;;;;1.75;0.65;;;;;;;-2.03;47.92;102252.09;5007779;28;20587;-81
2022/12/22 05:06:28;;;;;;;1.80;0.82;;;;;;;-2.14;47.89;102246.78;5005443;28;20058;-78
2022/12/22 05:08:57;;;;;;;0.93;0.50;;;;;;;-2.12;46.30;102258.00;5011584;28;20057;-79
2022/12/22 05:11:27;;;;;;;3.65;0.85;;;;;;;-2.16;47.30;102255.88;5003203;28;20041;-80
2022/12/22 05:13:56;;;;;;;1.83;0.75;;;;;;;-2.11;46.84;102258.88;5003574;28;20082;-79
2022/12/22 05:16:24;;;;;;;1.08;0.57;;;;;;;-2.12;47.08;102265.59;5003887;28;20041;-77
2022/12/22 05:18:53;;;;;;;2.92;0.80;;;;;;;-2.12;47.65;102267.25;5003107;28;20405;-76
2022/12/22 05:21:23;;;;;;;2.78;0.77;;;;;;;-2.11;47.58;102284.25;5006748;28;20060;-78
2022/12/22 05:23:52;;;;;;;1.23;0.80;;;;;;;-2.13;46.85;102280.66;5005825;28;20393;-79
2022/12/22 05:26:21;;;;;;;2.47;0.77;;;;;;;-2.14;47.22;102289.00;5009638;28;20046;-82
2022/12/22 05:28:51;;;;;;;1.27;0.85;;;;;;;-2.15;46.57;102297.38;5012256;28;20438;-77
2022/12/22 05:31:23;;;;;;;1.00;0.63;;;;;;;-2.15;46.67;102302.44;5007023;28;20069;-80
2022/12/22 05:33:52;;;;;;;2.50;0.73;;;;;;;-2.16;47.41;102301.53;5003041;28;20618;-75
2022/12/22 05:36:21;;;;;;;1.63;0.65;;;;;;;-2.18;46.57;102291.97;5012475;28;20046;-75
2022/12/22 05:38:49;;;;;;;2.75;0.70;;;;;;;-2.21;45.56;102284.94;5012152;28;20049;-76
2022/12/22 05:41:18;;;;;;;2.13;0.60;;;;;;;-2.23;45.62;102298.19;5008620;28;20406;-75
2022/12/22 05:43:47;;;;;;;10.85;1.45;;;;;;;-2.28;46.34;102289.22;5010033;28;20065;-73
2022/12/22 05:46:17;;;;;;;3.38;1.08;;;;;;;-2.37;46.26;102294.19;5012139;28;20553;-79
2022/12/22 05:48:46;;;;;;;1.73;1.10;;;;;;;-2.39;45.61;102303.28;5009661;28;21150;-77
2022/12/22 05:51:14;;;;;;;2.45;0.88;;;;;;;-2.43;45.06;102309.66;5006275;28;20060;-76
2022/12/22 05:53:43;;;;;;;1.90;0.73;;;;;;;-2.46;46.72;102301.72;5005089;28;20464;-76
2022/12/22 05:56:12;;;;;;;1.55;0.95;;;;;;;-2.46;46.34;102306.78;5005561;28;20049;-75
2022/12/22 05:58:40;;;;;;;1.45;0.93;;;;;;;-2.49;45.52;102303.94;5010893;28;20066;-74
2022/12/22 06:01:09;;;;;;;1.40;0.60;;;;;;;-2.52;45.57;102311.19;5026505;28;20056;-76
2022/12/22 06:03:40;;;;;;;0.98;0.52;;;;;;;-2.53;46.75;102322.09;5021712;28;20567;-79
2022/12/22 06:06:08;;;;;;;1.33;0.75;;;;;;;-2.58;46.88;102318.16;5024334;28;20459;-75
2022/12/22 06:08:37;;;;;;;2.05;0.57;;;;;;;-2.62;46.24;102314.41;5026889;28;20057;-75
2022/12/22 06:11:06;;;;;;;1.45;0.85;;;;;;;-2.63;46.75;102317.69;5025482;28;20240;-77
2022/12/22 06:13:35;;;;;;;3.05;0.70;;;;;;;-2.65;45.51;102315.72;5027315;28;20518;-75
2022/12/22 06:16:03;;;;;;;0.82;0.35;;;;;;;-2.69;45.60;102323.72;5025743;28;20486;-77
2022/12/22 06:18:32;;;;;;;2.63;0.52;;;;;;;-2.73;45.97;102322.47;5023246;28;20128;-74
2022/12/22 06:21:02;;;;;;;3.38;1.33;;;;;;;-2.75;46.36;102319.81;5027653;28;20088;-75
2022/12/22 06:23:31;;;;;;;1.65;0.50;;;;;;;-2.75;45.26;102318.88;5030082;28;20127;-77
2022/12/22 06:26:01;;;;;;;1.95;0.52;;;;;;;-2.77;45.87;102326.34;5027697;28;20809;-76
2022/12/22 06:28:32;;;;;;;1.30;0.60;;;;;;;-2.80;45.72;102333.59;5024854;28;20054;-77
2022/12/22 06:31:00;;;;;;;2.60;0.95;;;;;;;-2.81;45.51;102344.47;5023405;28;20466;-77
2022/12/22 06:33:29;;;;;;;1.95;0.77;;;;;;;-2.78;46.36;102349.84;5026214;28;20076;-75
2022/12/22 06:35:58;;;;;;;2.55;0.85;;;;;;;-2.81;44.64;102338.50;5026764;28;20503;-81
2022/12/22 06:38:29;;;;;;;0.93;0.57;;;;;;;-2.80;45.84;102346.25;5028411;28;20495;-76
2022/12/22 06:40:58;;;;;;;2.53;0.80;;;;;;;-2.82;44.54;102357.88;5024859;28;20065;-76
2022/12/22 06:43:25;;;;;;;1.30;0.47;;;;;;;-2.78;45.50;102351.50;5034260;28;20054;-76
2022/12/22 06:45:54;;;;;;;1.08;0.30;;;;;;;-2.77;45.61;102339.00;5021490;28;20049;-77
2022/12/22 06:48:23;;;;;;;1.63;0.57;;;;;;;-2.78;44.40;102344.78;5025247;28;20052;-75
2022/12/22 06:50:52;;;;;;;1.63;0.63;;;;;;;-2.75;45.40;102349.28;5024631;28;20699;-76
2022/12/22 06:53:20;;;;;;;2.67;0.65;;;;;;;-2.76;45.35;102338.25;5020686;28;20577;-75
2022/12/22 06:55:50;;;;;;;0.70;0.60;;;;;;;-2.78;44.15;102354.91;5024584;28;20707;-75
2022/12/22 06:58:19;;;;;;;0.75;0.30;;;;;;;-2.80;44.75;102356.38;5022795;28;20637;-75
2022/12/22 07:00:55;;;;;;;2.42;0.82;;;;;;;-2.79;43.99;102355.66;5024692;28;20116;-76
2022/12/22 07:03:23;;;;;;;0.47;0.22;;;;;;;-2.80;45.38;102348.78;5020239;28;20389;-77
2022/12/22 07:05:52;;;;;;;1.52;0.60;;;;;;;-2.84;44.32;102339.06;5024856;28;20060;-77
2022/12/22 07:08:20;;;;;;;5.50;1.27;;;;;;;-2.85;44.56;102342.31;5018957;28;20644;-78
2022/12/22 07:11:00;;;;;;;0.95;0.55;;;;;;;-2.87;44.42;102341.25;5022470;28;20053;-76
2022/12/22 07:13:31;;;;;;;5.40;0.68;;;;;;;-2.88;43.68;102331.88;5024496;28;20055;-75
2022/12/22 07:16:00;;;;;;;1.35;0.30;;;;;;;-2.88;44.30;102342.00;5024799;28;20045;-77
2022/12/22 07:18:29;;;;;;;0.52;0.20;;;;;;;-2.92;44.49;102334.81;5022842;28;20474;-77
2022/12/22 07:20:58;;;;;;;0.93;0.50;;;;;;;-2.98;44.04;102329.06;5024872;28;20049;-76
2022/12/22 07:23:27;;;;;;;3.97;0.82;;;;;;;-3.01;43.93;102327.09;5031197;28;20049;-75
2022/12/22 07:25:57;;;;;;;0.65;0.38;;;;;;;-3.03;43.86;102325.13;5015293;28;20099;-78
2022/12/22 07:28:26;;;;;;;1.77;0.43;;;;;;;-3.05;44.27;102324.94;5018274;28;20063;-74
2022/12/22 07:30:56;;;;;;;1.95;0.60;;;;;;;-3.10;44.43;102322.66;5028570;28;20056;-78
2022/12/22 07:33:24;;;;;;;1.35;0.75;;;;;;;-3.14;43.72;102323.06;5024010;28;20053;-76
2022/12/22 07:36:04;;;;;;;3.13;0.77;;;;;;;-3.16;44.38;102322.91;5024381;28;20057;-79
2022/12/22 07:38:35;;;;;;;1.70;0.55;;;;;;;-3.18;44.87;102315.13;5026518;28;21289;-77
2022/12/22 07:42:43;;;;;;;0.63;0.20;;;;;;;-3.18;44.74;102327.81;5025257;28;20521;-76
2022/12/22 07:43:54;;;;;;;1.08;0.45;;;;;;;-3.19;45.01;102330.16;5026584;28;20057;-76
2022/12/22 07:46:23;;;;;;;1.35;0.30;;;;;;;-3.20;44.51;102324.19;5024576;28;20100;-77
2022/12/22 07:51:39;;;;;;;0.38;0.30;;;;;;;-3.22;44.29;102323.13;5027936;28;20164;-76
2022/12/22 07:54:09;;;;;;;6.00;0.75;;;;;;;-3.25;44.34;102307.63;5027112;28;20606;-77
2022/12/22 07:56:39;;;;;;;1.20;0.52;;;;;;;-3.22;44.04;102315.53;5025140;28;20049;-75
2022/12/22 07:59:08;;;;;;;0.93;0.60;;;;;;;-3.22;44.88;102313.00;5022657;28;20049;-76
2022/12/22 08:01:37;;;;;;;0.60;0.22;;;;;;;-3.27;44.26;102313.25;5024080;28;20045;-77
2022/12/22 08:04:06;;;;;;;2.55;0.32;;;;;;;-3.28;44.64;102302.19;5023191;28;20045;-76
2022/12/22 08:06:35;;;;;;;0.52;0.47;;;;;;;-3.30;42.97;102303.66;5027190;28;20091;-77
2022/12/22 08:09:05;;;;;;;0.60;0.55;;;;;;;-3.39;45.26;102293.44;5021628;28;20053;-78
2022/12/22 08:11:34;;;;;;;1.48;0.30;;;;;;;-3.30;44.84;102298.59;5023453;28;20077;-75
2022/12/22 08:14:04;;;;;;;0.52;0.40;;;;;;;-3.41;43.98;102310.09;5027353;28;20056;-78
2022/12/22 08:16:32;;;;;;;1.13;0.52;;;;;;;-3.38;44.09;102302.81;5030377;28;20045;-79
2022/12/22 08:19:01;;;;;;;7.18;0.70;;;;;;;-3.43;43.97;102303.97;5025910;28;20049;-76
2022/12/22 08:21:30;;;;;;;2.25;0.98;;;;;;;-3.42;42.79;102294.72;5023945;28;20053;-77
2022/12/22 08:23:58;;;;;;;2.88;0.50;;;;;;;-3.43;43.77;102291.31;5027958;28;20738;-74
2022/12/22 08:26:33;;;;;;;0.52;0.50;;;;;;;-3.42;43.91;102285.50;5029285;28;20062;-79
2022/12/22 08:29:07;;;;;;;0.98;0.73;;;;;;;-3.38;43.71;102299.41;5030006;28;20053;-77
2022/12/22 08:31:36;;;;;;;1.48;0.93;;;;;;;-3.35;43.18;102287.06;5026363;28;20045;-76
2022/12/22 08:34:08;;;;;;;1.25;0.47;;;;;;;-3.46;44.52;102300.19;5029252;28;20062;-76
2022/12/22 08:36:40;;;;;;;1.67;0.38;;;;;;;-3.47;44.28;102304.34;5029145;28;20056;-77
2022/12/22 08:39:09;;;;;;;4.33;0.83;;;;;;;-3.58;44.05;102295.56;5025579;28;20045;-77
2022/12/22 08:41:53;;;;;;;0.50;0.25;;;;;;;-3.51;44.13;102297.13;5029835;28;20056;-74
2022/12/22 08:44:25;;;;;;;0.88;0.60;;;;;;;-3.50;43.24;102293.00;5030470;28;20048;-75
2022/12/22 08:47:02;;;;;;;1.00;0.80;;;;;;;-3.49;43.79;102279.59;5032817;28;20489;-76
2022/12/22 08:49:31;;;;;;;1.58;0.77;;;;;;;-3.49;43.07;102289.72;5032375;28;20101;-75
2022/12/22 08:52:00;;;;;;;2.90;0.77;;;;;;;-3.48;43.05;102281.41;5028207;28;20053;-75
2022/12/22 08:54:29;;;;;;;0.60;0.60;;;;;;;-3.47;43.34;102293.34;5028992;28;20059;-77
2022/12/22 08:56:58;;;;;;;1.02;0.63;;;;;;;-3.45;42.39;102297.81;5027258;28;20061;-78
2022/12/22 08:59:42;;;;;;;0.45;0.40;;;;;;;-3.46;43.42;102306.16;5010909;28;21141;-78
2022/12/22 09:02:11;;;;;;;1.05;0.47;;;;;;;-3.43;43.49;102295.47;5027975;28;20049;-78
2022/12/22 09:04:40;;;;;;;0.60;0.40;;;;;;;-3.46;43.71;102290.97;5026327;28;20050;-74
2022/12/22 09:07:08;;;;;;;1.60;0.40;;;;;;;-3.43;43.49;102290.41;5020603;28;20558;-77
2022/12/22 09:09:37;;;;;;;1.85;0.70;;;;;;;-3.43;43.82;102300.53;5030560;28;20041;-77
2022/12/22 09:12:07;;;;;;;0.55;0.43;;;;;;;-3.47;43.42;102294.22;5026263;28;20080;-74
2022/12/22 09:14:37;;;;;;;2.05;0.80;;;;;;;-3.45;42.92;102304.53;5036811;28;20327;-77
2022/12/22 09:17:06;;;;;;;2.30;1.05;;;;;;;-3.47;43.29;102306.00;5033329;28;20054;-76
2022/12/22 09:19:35;;;;;;;4.57;0.73;;;;;;;-3.48;43.26;102312.69;5033155;28;20202;-75
2022/12/22 09:22:04;;;;;;;2.03;0.70;;;;;;;-3.52;43.40;102314.72;5034878;28;20041;-76
2022/12/22 09:24:33;;;;;;;0.70;0.50;;;;;;;-3.54;43.67;102316.16;5027545;28;20052;-74
2022/12/22 09:27:02;;;;;;;4.43;0.70;;;;;;;-3.53;42.99;102323.91;5025460;28;20062;-76
2022/12/22 09:29:30;;;;;;;0.95;0.77;;;;;;;-3.56;43.79;102322.69;5030697;28;20045;-74
2022/12/22 09:32:01;;;;;;;3.13;0.95;;;;;;;-3.56;42.90;102317.63;5024033;28;20058;-75
2022/12/22 09:34:30;;;;;;;5.20;1.05;;;;;;;-3.58;42.32;102319.97;5036183;28;20048;-77
2022/12/22 09:36:58;;;;;;;0.88;0.65;;;;;;;-3.63;42.92;102334.63;5030043;28;20050;-76
2022/12/22 09:39:27;;;;;;;0.60;0.40;;;;;;;-3.76;43.28;102331.47;5030560;28;20053;-75
2022/12/22 09:41:58;;;;;;;0.75;0.57;;;;;;;-3.73;42.83;102326.78;5025253;28;20057;-74
2022/12/22 09:44:28;;;;;;;3.17;0.90;;;;;;;-3.71;42.89;102334.50;5029867;28;20155;-76
2022/12/22 09:47:01;;;;;;;1.25;0.63;;;;;;;-3.69;43.03;102333.06;5033673;28;20061;-74
2022/12/22 09:49:30;;;;;;;2.25;0.80;;;;;;;-3.69;42.78;102326.34;5039329;28;20098;-74
2022/12/22 09:52:00;;;;;;;2.97;0.63;;;;;;;-3.73;42.30;102321.72;5029284;28;20046;-76
2022/12/22 09:54:30;;;;;;;1.33;0.70;;;;;;;-3.72;42.71;102325.13;5026626;28;20049;-75
2022/12/22 09:56:59;;;;;;;1.95;0.73;;;;;;;-3.77;41.93;102317.03;5031144;28;20055;-76
2022/12/22 09:59:30;;;;;;;1.05;0.43;;;;;;;-3.77;43.01;102322.09;5021767;28;20061;-78
2022/12/22 10:02:16;;;;;;;0.30;0.30;;;;;;;-3.81;44.07;102325.00;5027779;28;20125;-76
2022/12/22 10:05:01;;;;;;;2.65;0.70;;;;;;;-3.83;43.56;102313.81;5024543;28;20064;-78
2022/12/22 10:07:34;;;;;;;4.38;0.50;;;;;;;-3.87;43.11;102320.16;5023831;28;20053;-77
2022/12/22 10:10:08;;;;;;;3.92;1.08;;;;;;;-3.90;41.94;102304.63;5019830;28;20061;-76
2022/12/22 10:12:36;;;;;;;1.75;0.70;;;;;;;-3.88;42.96;102318.34;5027741;28;20484;-74
2022/12/22 10:15:06;;;;;;;4.32;1.60;;;;;;;-3.90;42.72;102321.44;5022401;28;20054;-74
2022/12/22 10:17:37;;;;;;;0.90;0.57;;;;;;;-3.94;42.64;102320.22;5024629;28;20077;-77
2022/12/22 10:20:20;;;;;;;1.50;0.70;;;;;;;-3.96;42.36;102311.56;5024751;28;20055;-74
2022/12/22 10:22:51;;;;;;;0.20;0.10;;;;;;;-3.94;42.50;102307.56;5023955;28;20503;-75
2022/12/22 10:25:32;;;;;;;0.20;0.20;;;;;;;-3.95;43.33;102305.75;5026646;28;20138;-76
2022/12/22 10:28:03;;;;;;;0.55;0.30;;;;;;;-3.97;42.17;102316.44;5022159;28;20046;-75
2022/12/22 10:30:35;;;;;;;2.08;0.35;;;;;;;-4.03;44.41;102317.56;5027888;28;20049;-73
2022/12/22 10:33:11;;;;;;;0.45;0.35;;;;;;;-4.11;42.53;102303.13;5028582;28;20056;-74
2022/12/22 10:35:51;;;;;;;1.15;0.60;;;;;;;-4.14;42.21;102287.63;5023778;28;20052;-75
2022/12/22 10:38:24;;;;;;;1.17;0.40;;;;;;;-4.13;42.96;102299.53;5023876;28;20049;-76
2022/12/22 10:40:56;;;;;;;3.92;0.82;;;;;;;-4.11;43.24;102300.59;5024475;28;20099;-74
2022/12/22 10:43:27;;;;;;;1.98;0.43;;;;;;;-4.06;43.03;102301.13;5027649;28;20107;-74
2022/12/22 10:45:58;;;;;;;0.73;0.57;;;;;;;-4.08;43.25;102311.06;5026527;28;20057;-76
2022/12/22 10:48:31;;;;;;;2.42;0.55;;;;;;;-4.09;42.85;102318.47;5025952;28;20072;-75
2022/12/22 10:51:00;;;;;;;;;;;;;;;-4.09;42.76;102314.31;5030439;28;20054;-75
2022/12/22 10:53:47;;;;;;;1.08;0.70;;;;;;;-4.09;43.35;102316.84;5025927;28;19925;-76
2022/12/22 10:56:23;;;;;;;0.40;0.30;;;;;;;-4.08;42.17;102323.69;5024158;28;20042;-74
2022/12/22 10:58:54;;;;;;;0.95;0.60;;;;;;;-4.08;42.47;102335.44;5024033;28;20559;-73
2022/12/22 11:01:31;;;;;;;0.40;0.40;;;;;;;-4.12;41.69;102329.16;5027320;28;20132;-75
2022/12/22 11:04:17;;;;;;;0.20;0.10;;;;;;;-4.19;43.31;102329.19;5023251;28;20056;-75
2022/12/22 11:06:46;;;;;;;1.63;0.47;;;;;;;-4.19;42.56;102318.16;5023877;28;20045;-78
2022/12/22 11:09:14;;;;;;;2.30;0.70;;;;;;;-4.16;42.45;102309.31;5028108;28;20261;-78
2022/12/22 11:11:50;;;;;;;0.10;0.10;;;;;;;-4.19;42.50;102298.84;5028355;28;20084;-74
2022/12/22 11:14:32;;;;;;;0.50;0.43;;;;;;;-4.27;41.81;102312.25;5026698;28;20068;-75
2022/12/22 11:17:08;;;;;;;0.60;0.47;;;;;;;-4.27;41.38;102310.59;5022907;28;20065;-75
2022/12/22 11:19:54;;;;;;;3.33;0.85;;;;;;;-4.27;41.55;102297.09;5023045;28;20049;-74
2022/12/22 11:22:38;;;;;;;0.25;0.20;;;;;;;-4.32;43.03;102295.66;5023642;28;20128;-75
2022/12/22 11:25:29;;;;;;;4.15;1.23;;;;;;;-4.31;41.82;102294.94;5025513;28;20054;-78
2022/12/22 11:28:17;;;;;;;2.90;0.45;;;;;;;-4.30;42.42;102277.41;5026872;28;20056;-74
2022/12/22 11:30:53;;;;;;;0.80;0.47;;;;;;;-4.27;41.40;102270.16;5025878;28;20099;-74
2022/12/22 11:33:36;;;;;;;0.88;0.20;;;;;;;-4.37;42.10;102271.50;5024165;28;20049;-73
2022/12/22 11:36:12;;;;;;;2.88;0.80;;;;;;;-4.34;41.19;102274.38;5025470;28;20045;-78
2022/12/22 11:38:50;;;;;;;0.45;0.38;;;;;;;-4.30;42.24;102274.88;5026516;28;20062;-75
2022/12/22 11:41:41;;;;;;;1.75;0.30;;;;;;;-4.30;41.36;102261.38;5023910;28;20075;-76
2022/12/22 11:44:26;;;;;;;0.95;0.38;;;;;;;-4.28;42.07;102270.03;5026922;28;20049;-77
2022/12/22 11:47:03;;;;;;;1.33;0.65;;;;;;;-4.31;42.05;102267.13;5025681;28;20141;-78
2022/12/22 11:49:46;;;;;;;0.88;0.40;;;;;;;-4.32;41.87;102256.13;5024910;28;20144;-75
2022/12/22 11:52:34;;;;;;;0.47;0.30;;;;;;;-4.35;42.04;102260.84;5023302;28;20057;-75
2022/12/22 11:55:25;;;;;;;1.60;0.43;;;;;;;-4.30;41.13;102243.69;5028221;28;20048;-76
2022/12/22 11:58:06;;;;;;;0.85;0.17;;;;;;;-4.32;41.70;102240.06;5024838;28;20049;-75
2022/12/22 12:00:50;;;;;;;0.70;0.32;;;;;;;-4.39;41.41;102242.63;5024575;28;20057;-74
2022/12/22 12:03:49;;;;;;;0.45;0.30;;;;;;;-4.33;40.52;102228.16;5023054;28;20826;-75
2022/12/22 12:06:48;;;;;;;1.40;0.35;;;;;;;-4.30;42.02;102220.94;4983368;28;20132;-74
2022/12/22 12:09:33;;;;;;;1.33;0.70;;;;;;;-4.29;41.55;102222.72;5025726;28;20096;-73
2022/12/22 12:12:08;;;;;;;0.35;0.32;;;;;;;-4.34;40.89;102232.31;5021305;28;20045;-76
2022/12/22 12:14:44;;;;;;;0.50;0.35;;;;;;;-4.39;41.37;102217.38;5024079;28;20042;-75
2022/12/22 12:17:21;;;;;;;0.60;0.43;;;;;;;-4.31;40.52;102234.28;5023730;28;20057;-76
2022/12/22 12:20:12;;;;;;;1.27;0.70;;;;;;;-4.26;40.67;102221.44;5023993;28;20609;-75
2022/12/22 12:22:53;;;;;;;0.65;0.40;;;;;;;-4.24;40.14;102225.06;5023816;28;20048;-79
2022/12/22 12:25:30;;;;;;;0.75;0.28;;;;;;;-4.23;40.50;102203.19;5022529;28;20076;-76
2022/12/22 12:28:13;;;;;;;1.40;0.47;;;;;;;-4.19;41.22;102202.81;5025618;28;20698;-78
2022/12/22 12:30:54;;;;;;;0.50;0.45;;;;;;;-4.24;40.56;102201.38;5021545;28;20077;-75
2022/12/22 12:33:31;;;;;;;1.17;0.40;;;;;;;-4.24;40.85;102202.31;5025181;28;20042;-74
2022/12/22 12:36:06;;;;;;;1.40;0.35;;;;;;;-4.21;40.42;102211.84;5028060;28;20050;-74
2022/12/22 12:38:52;;;;;;;0.50;0.38;;;;;;;-4.32;40.00;102190.44;5023776;28;20057;-78
2022/12/22 12:41:28;;;;;;;9.65;0.65;;;;;;;-4.31;40.26;102204.84;5021343;28;20068;-77
2022/12/22 12:43:58;;;;;;;0.38;0.25;;;;;;;-4.27;41.62;102208.63;5023175;28;20756;-74
2022/12/22 12:46:47;;;;;;;1.08;0.63;;;;;;;-4.25;39.65;102212.22;5024695;28;20101;-77
2022/12/22 12:49:56;;;;;;;1.48;0.73;;;;;;;-4.31;39.95;102224.16;5023417;28;20072;-73
2022/12/22 12:53:15;;;;;;;1.27;0.30;;;;;;;-4.31;42.03;102230.13;5021493;28;21280;-73
2022/12/22 12:56:05;;;;;;;2.70;0.60;;;;;;;-4.30;40.31;102216.78;5027345;28;20037;-74
2022/12/22 12:58:54;;;;;;;0.20;0.15;;;;;;;-4.23;40.19;102229.34;5023783;28;20556;-75
2022/12/22 13:01:57;;;;;;;0.47;0.30;;;;;;;-4.17;40.28;102210.53;5034695;28;20057;-76
2022/12/22 13:05:13;;;;;;;0.20;0.20;;;;;;;-4.15;41.30;102211.63;5027518;28;20053;-73
2022/12/22 13:08:16;;;;;;;0.30;0.17;;;;;;;-4.19;40.06;102182.59;5028903;28;20446;-77
2022/12/22 13:10:45;;;;;;;;;;;;;;;-4.29;39.95;102199.97;5027751;28;20049;-77
2022/12/22 13:13:47;;;;;;;0.32;0.30;;;;;;;-4.27;40.14;102217.09;5024078;28;19928;-76
2022/12/22 13:16:29;;;;;;;1.15;0.40;;;;;;;-4.23;40.65;102195.63;5014423;28;20137;-77
2022/12/22 13:18:58;;;;;;;0.35;0.35;;;;;;;-4.22;41.37;102215.09;5025687;28;20499;-75
2022/12/22 13:21:31;;;;;;;0.75;0.40;;;;;;;-4.19;40.68;102184.19;5023932;28;20045;-79
2022/12/22 13:24:04;;;;;;;1.45;0.88;;;;;;;-4.15;40.54;102184.72;5025022;28;20522;-76
2022/12/22 13:26:36;;;;;;;1.17;0.22;;;;;;;-4.21;41.13;102173.94;5020890;28;20049;-76
2022/12/22 13:29:10;;;;;;;;;;;;;;;-4.27;40.42;102175.78;5025441;28;20046;-75
2022/12/22 13:31:44;;;;;;;0.98;0.17;;;;;;;-4.24;39.86;102188.75;5027249;28;19933;-73
2022/12/22 13:34:46;;;;;;;0.47;0.32;;;;;;;-4.23;41.50;102186.41;5027997;28;21151;-78
2022/12/22 13:37:19;;;;;;;1.65;0.52;;;;;;;-4.29;41.27;102198.34;5015817;28;20049;-77
2022/12/22 13:40:12;;;;;;;1.00;0.60;;;;;;;-4.31;40.41;102187.16;5024377;28;20162;-77
2022/12/22 13:42:43;;;;;;;1.27;0.55;;;;;;;-4.24;39.80;102184.59;5026261;28;20566;-76
2022/12/22 13:45:37;;;;;;;0.60;0.32;;;;;;;-4.17;41.48;102202.97;5027085;28;20553;-73
2022/12/22 13:48:13;;;;;;;0.10;0.10;;;;;;;-4.34;40.50;102181.78;5004162;28;20535;-76
2022/12/22 13:50:46;;;;;;;0.80;0.50;;;;;;;-4.27;41.27;102193.47;5026994;28;20454;-73
2022/12/22 13:53:20;;;;;;;0.22;0.10;;;;;;;-4.27;40.80;102191.84;5020353;28;20038;-75
2022/12/22 13:55:49;;;;;;;0.57;0.40;;;;;;;-4.26;39.86;102185.13;5021375;28;20061;-75
2022/12/22 13:58:27;;;;;;;6.38;0.32;;;;;;;-4.23;40.92;102193.09;5025408;28;20052;-77
2022/12/22 14:01:04;;;;;;;0.25;0.25;;;;;;;-4.21;39.91;102189.09;5027449;28;20446;-75
2022/12/22 14:03:34;;;;;;;0.10;0.10;;;;;;;-4.21;42.51;102179.00;5025590;28;20128;-75
2022/12/22 14:06:03;;;;;;;0.43;0.30;;;;;;;-4.15;38.79;102179.66;5027970;28;20053;-75
2022/12/22 14:08:32;;;;;;;0.45;0.40;;;;;;;-4.17;40.43;102170.09;5025549;28;20128;-75
2022/12/22 14:11:00;;;;;;;0.30;0.20;;;;;;;-4.15;39.82;102194.81;5025399;28;20057;-76
2022/12/22 14:13:33;;;;;;;5.30;0.50;;;;;;;-4.12;40.00;102190.13;5024965;28;20108;-77
2022/12/22 14:16:14;;;;;;;0.43;0.40;;;;;;;-4.09;38.78;102185.41;5024972;28;20080;-74
2022/12/22 14:18:45;;;;;;;0.32;0.32;;;;;;;-4.10;39.06;102173.50;5024518;28;20049;-73
2022/12/22 14:21:14;;;;;;;0.40;0.30;;;;;;;-4.09;39.79;102170.22;5023177;28;20050;-76
2022/12/22 14:23:44;;;;;;;0.35;0.32;;;;;;;-4.08;39.31;102166.06;5025950;28;20514;-76
2022/12/22 14:26:18;;;;;;;1.30;0.52;;;;;;;-4.06;40.11;102165.50;5026706;28;20521;-73
2022/12/22 14:28:52;;;;;;;0.70;0.55;;;;;;;-4.04;39.99;102164.03;5027180;28;20056;-74
2022/12/22 14:31:20;;;;;;;1.35;0.43;;;;;;;-4.05;38.90;102154.69;5026470;28;20053;-74
2022/12/22 14:33:55;;;;;;;1.23;0.55;;;;;;;-4.02;38.49;102161.69;5025770;28;20055;-77
2022/12/22 14:36:25;;;;;;;1.65;0.45;;;;;;;-4.09;39.19;102172.75;5022833;28;20419;-74
2022/12/22 14:38:55;;;;;;;0.55;0.40;;;;;;;-4.09;38.89;102151.63;5023299;28;20049;-72
2022/12/22 14:41:45;;;;;;;0.20;0.20;;;;;;;-4.11;38.85;102151.47;5024705;28;20501;-76
2022/12/22 14:44:16;;;;;;;1.10;0.35;;;;;;;-4.10;40.02;102153.28;5018141;28;20415;-76
2022/12/22 14:46:46;;;;;;;0.60;0.40;;;;;;;-4.08;38.46;102166.97;5021713;28;20654;-75
2022/12/22 14:49:20;;;;;;;1.45;0.43;;;;;;;-4.08;39.70;102171.13;5022589;28;20518;-78
2022/12/22 14:51:56;;;;;;;1.23;0.45;;;;;;;-4.11;38.42;102166.63;5024062;28;20073;-76
2022/12/22 14:54:28;;;;;;;0.80;0.45;;;;;;;-4.11;39.62;102179.28;5020912;28;20644;-74
2022/12/22 14:57:09;;;;;;;1.13;0.43;;;;;;;-4.06;39.81;102183.19;5019659;28;20057;-73
2022/12/22 14:59:38;;;;;;;3.08;0.55;;;;;;;-4.01;40.51;102184.63;5022753;28;20056;-74
2022/12/22 15:02:25;;;;;;;0.80;0.50;;;;;;;-3.97;38.09;102180.78;5006682;28;20041;-74
2022/12/22 15:05:16;;;;;;;0.73;0.73;;;;;;;-4.09;39.36;102182.88;5011128;28;20514;-72
2022/12/22 15:07:47;;;;;;;0.80;0.50;;;;;;;-4.10;39.94;102183.63;5010393;28;20050;-73
2022/12/22 15:10:17;;;;;;;1.30;0.28;;;;;;;-4.05;39.83;102174.91;5008885;28;20169;-74
2022/12/22 15:12:47;;;;;;;0.60;0.50;;;;;;;-4.02;40.53;102172.69;5007947;28;20554;-73
2022/12/22 15:15:18;;;;;;;0.75;0.22;;;;;;;-4.00;39.63;102180.47;5013460;28;20093;-75
2022/12/22 15:17:49;;;;;;;1.63;0.70;;;;;;;-4.02;37.69;102170.16;5008955;28;20101;-74
2022/12/22 15:20:23;;;;;;;1.52;0.60;;;;;;;-4.06;38.89;102159.56;5009528;28;20396;-75
2022/12/22 15:22:52;;;;;;;0.60;0.40;;;;;;;-4.05;38.28;102167.31;5000170;28;20057;-73
2022/12/22 15:25:23;;;;;;;0.73;0.50;;;;;;;-4.04;38.39;102161.50;5002991;28;20073;-76
2022/12/22 15:27:52;;;;;;;2.70;0.70;;;;;;;-4.05;39.78;102142.03;4995851;28;20054;-74
2022/12/22 15:30:22;;;;;;;0.80;0.45;;;;;;;-4.06;38.91;102147.81;4996544;28;20145;-73